Abernathy, Texas
Current Conditions -  °F | °C
As of 8:21 PM on Wednesday 22 Oct 2014 (Local Time) from KLBB Reporting Station
Haze Haze  
Wind Chill: 62°   Ceiling: 1600
Heat Index: 62°   Visibility: 5mi
Dew Point: 59°   Wind: 14mph
Humidity: 90%   Direction: 150°SSE
Pressure: 30.11"   Gusts: NA
Location:  33.83°N, 101.84°W
Report Text: KLBB 230121Z 15012KT 5SM BR BKN016 17/15 A3011 RMK AO2 T01670150
Loading
Personal Weather Stations






























Interactive Weather Map
Tropical Storm Tracking
New forecast layout! Learn more

10-Day Weather Forecast

Advertisements
Track Severe Weather on mobile